Time;durP1;ratioP1;P1;durP2;ratioP2;P2;SDS_P1;SDS_P2;PMS_P1;PMS_P2;Temp;Humidity;BMP_temperature;BMP_pressure;BME280_temperature;BME280_humidity;BME280_pressure;Samples;Min_cycle;Max_cycle;Signal;HPM_P1;HPM_P2
2022/09/25 00:00:58;;;;;;;;;6.00;5.67;;;;;15.57;63.43;100979.53;5115825;27;45546;-70
2022/09/25 00:03:26;;;;;;;;;5.33;5.33;;;;;15.09;63.78;100906.28;5078788;27;45449;-69
2022/09/25 00:05:52;;;;;;;;;4.33;4.00;;;;;15.64;63.77;101004.69;5077475;27;47315;-71
2022/09/25 00:08:18;;;;;;;;;7.33;7.33;;;;;15.45;63.85;100976.38;5096816;27;45327;-69
2022/09/25 00:10:47;;;;;;;;;6.33;6.33;;;;;15.26;64.06;100942.75;5112204;27;45649;-70
2022/09/25 00:13:14;;;;;;;;;14.00;10.67;;;;;15.55;63.93;101024.41;5088330;27;45530;-70
2022/09/25 00:15:46;;;;;;;;;9.33;8.33;;;;;15.42;64.14;101016.91;5077857;27;47334;-69
2022/09/25 00:18:11;;;;;;;;;6.00;6.00;;;;;15.23;64.47;100996.66;5099160;27;45525;-70
2022/09/25 00:20:36;;;;;;;;;9.00;8.00;;;;;15.34;64.80;101011.53;5100063;27;45312;-70
2022/09/25 00:23:02;;;;;;;;;10.00;8.33;;;;;15.38;64.48;101005.66;5100102;27;45281;-70
2022/09/25 00:25:27;;;;;;;;;9.00;8.67;;;;;15.19;64.67;100989.94;5099539;27;45534;-71
2022/09/25 00:27:54;;;;;;;;;9.00;9.00;;;;;15.21;64.61;101004.84;5081284;27;45676;-69
2022/09/25 00:30:20;;;;;;;;;10.33;8.33;;;;;15.42;64.60;101023.09;5099378;27;45521;-70
2022/09/25 00:32:45;;;;;;;;;8.33;6.67;;;;;15.35;64.63;101022.09;5099857;27;45464;-70
2022/09/25 00:35:11;;;;;;;;;4.67;4.67;;;;;15.23;64.52;100983.28;5099253;27;45634;-71
2022/09/25 00:37:36;;;;;;;;;7.00;5.33;;;;;15.49;64.12;101021.41;5099668;27;45422;-69
2022/09/25 00:40:03;;;;;;;;;5.00;5.00;;;;;15.53;64.34;101019.22;5099782;27;45288;-72
2022/09/25 00:42:29;;;;;;;;;2.67;0.33;;;;;15.51;64.23;101029.28;5099558;27;45504;-70
2022/09/25 00:44:56;;;;;;;;;7.00;4.67;;;;;15.43;64.56;101022.09;5099271;27;46469;-70
2022/09/25 00:47:29;;;;;;;;;6.00;6.00;;;;;14.94;64.44;100940.91;5099543;27;45421;-71
2022/09/25 00:49:57;;;;;;;;;5.00;4.00;;;;;15.40;64.26;101000.97;5099703;27;45283;-70
2022/09/25 00:52:24;;;;;;;;;10.33;8.33;;;;;15.38;64.71;100986.91;5099736;27;45626;-69
2022/09/25 00:54:54;;;;;;;;;5.00;5.00;;;;;15.52;64.06;101007.69;5098897;27;47998;-69
2022/09/25 00:57:25;;;;;;;;;6.67;6.67;;;;;15.52;64.22;101009.50;5098836;27;45445;-71
2022/09/25 00:59:54;;;;;;;;;8.33;7.00;;;;;15.42;64.29;100999.00;5099535;27;45353;-72
2022/09/25 01:02:45;;;;;;;;;8.33;5.33;;;;;15.48;64.30;101013.53;5102642;27;45612;-70
2022/09/25 01:05:17;;;;;;;;;8.00;6.67;;;;;15.41;64.20;101005.31;5111907;27;46603;-71
2022/09/25 01:07:46;;;;;;;;;8.33;6.00;;;;;15.01;64.56;100939.22;5119433;27;45479;-70
2022/09/25 01:10:13;;;;;;;;;5.67;5.00;;;;;15.23;64.36;100980.59;5119208;27;45186;-70
2022/09/25 01:12:42;;;;;;;;;7.33;7.33;;;;;15.40;64.68;101011.69;5135641;27;45505;-69
2022/09/25 01:15:13;;;;;;;;;4.00;3.00;;;;;15.32;65.15;101018.91;5118187;27;46707;-71
2022/09/25 01:17:54;;;;;;;;;8.67;7.33;;;;;15.29;65.01;101009.38;5111551;27;45510;-71
2022/09/25 01:20:31;;;;;;;;;5.33;5.33;;;;;15.14;65.10;101005.69;5119518;27;45265;-70
2022/09/25 01:23:15;;;;;;;;;6.33;6.33;;;;;15.19;65.05;101014.03;5119641;27;45223;-69
2022/09/25 01:26:05;;;;;;;;;7.67;7.67;;;;;15.32;64.88;101017.06;5119317;27;45865;-69
2022/09/25 01:29:07;;;;;;;;;7.33;7.00;;;;;15.15;65.44;101007.34;5118578;27;45313;-70
2022/09/25 01:31:55;;;;;;;;;3.33;2.67;;;;;15.21;65.24;101022.75;5119229;27;45505;-71
2022/09/25 01:35:02;;;;;;;;;7.00;6.33;;;;;15.08;65.55;101003.69;5119108;27;45535;-72
2022/09/25 01:38:08;;;;;;;;;6.67;4.00;;;;;15.25;65.19;101012.56;5095676;27;46451;-70
2022/09/25 01:40:39;;;;;;;;;5.00;5.00;;;;;15.29;65.05;101009.38;5095678;27;45399;-70
2022/09/25 01:43:19;;;;;;;;;5.33;5.33;;;;;15.28;65.16;101002.34;5119152;27;45243;-69
2022/09/25 01:46:00;;;;;;;;;12.00;9.00;;;;;15.33;65.02;101000.00;5111250;27;45228;-70
2022/09/25 01:48:29;;;;;;;;;10.67;9.00;;;;;15.27;65.13;100997.16;5118427;27;46550;-69
2022/09/25 01:51:00;;;;;;;;;8.33;8.33;;;;;15.20;65.10;100988.94;5119100;27;45511;-70
2022/09/25 01:53:35;;;;;;;;;9.00;8.67;;;;;15.12;64.98;100971.03;5119206;27;45352;-70
2022/09/25 01:56:06;;;;;;;;;7.67;7.67;;;;;15.29;65.17;101004.00;5119751;27;45352;-70
2022/09/25 01:58:40;;;;;;;;;8.00;7.00;;;;;15.28;65.18;100996.16;5119087;27;46440;-70
2022/09/25 02:01:23;;;;;;;;;9.00;8.00;;;;;14.72;65.33;100912.97;5115450;27;45284;-70
2022/09/25 02:03:56;;;;;;;;;9.67;7.67;;;;;15.23;65.23;101001.19;5090420;27;45434;-70
2022/09/25 02:06:23;;;;;;;;;9.00;9.00;;;;;14.76;65.56;100938.41;5098290;27;45472;-72
2022/09/25 02:09:03;;;;;;;;;7.00;7.00;;;;;14.90;65.78;100977.06;5079500;27;47669;-70
2022/09/25 02:11:38;;;;;;;;;9.00;7.33;;;;;14.95;65.90;100985.44;5097597;27;45311;-69
2022/09/25 02:14:14;;;;;;;;;8.00;6.33;;;;;14.93;66.27;100989.28;5090654;27;45595;-70
2022/09/25 02:16:43;;;;;;;;;9.00;7.33;;;;;14.55;66.16;100922.00;5098102;27;45323;-70
2022/09/25 02:22:19;;;;;;;;;5.00;5.00;;;;;15.19;65.84;100998.81;5090908;27;45447;-70
2022/09/25 02:24:55;;;;;;;;;12.00;10.33;;;;;15.24;65.69;101003.69;5079311;27;45584;-69
2022/09/25 02:27:21;;;;;;;;;9.67;8.00;;;;;14.74;65.64;100913.66;5080052;27;45489;-69
2022/09/25 02:29:50;;;;;;;;;7.00;7.00;;;;;15.11;66.04;100996.16;5097927;27;45596;-69
2022/09/25 02:32:20;;;;;;;;;8.33;6.33;;;;;15.24;66.01;101006.38;5098096;27;45470;-70
2022/09/25 02:34:46;;;;;;;;;9.67;7.00;;;;;15.27;65.72;101011.38;5096413;27;45455;-69
2022/09/25 02:37:14;;;;;;;;;7.00;5.33;;;;;15.12;65.54;100984.44;5080140;27;45475;-69
2022/09/25 02:39:42;;;;;;;;;9.33;6.67;;;;;15.15;64.96;100986.78;5078891;27;48550;-69
2022/09/25 02:42:26;;;;;;;;;5.00;5.00;;;;;15.34;64.84;101007.03;5097675;27;45492;-71
2022/09/25 02:45:10;;;;;;;;;5.67;4.67;;;;;15.18;65.42;101007.03;5098108;27;45464;-70
2022/09/25 02:47:38;;;;;;;;;4.33;4.00;;;;;15.18;65.71;101012.38;5097563;27;45631;-70
2022/09/25 02:50:19;;;;;;;;;7.67;7.33;;;;;14.94;65.77;100988.28;5097740;27;45799;-70
2022/09/25 02:53:06;;;;;;;;;5.67;5.67;;;;;14.68;66.08;100941.09;5079211;27;45419;-69
2022/09/25 02:56:03;;;;;;;;;7.67;7.00;;;;;15.06;66.05;101013.72;5098014;27;45437;-71
2022/09/25 02:58:36;;;;;;;;;9.33;8.33;;;;;14.97;66.11;101004.00;5047918;27;45381;-70
2022/09/25 03:01:06;;;;;;;;;8.67;5.67;;;;;14.96;66.27;101002.31;5090721;27;46046;-71
2022/09/25 03:03:33;;;;;;;;;9.00;9.00;;;;;15.09;65.93;101014.22;5116523;27;45488;-70
2022/09/25 03:06:01;;;;;;;;;12.00;10.00;;;;;15.05;66.82;101017.41;5117837;27;45495;-70
2022/09/25 03:08:36;;;;;;;;;8.67;8.67;;;;;15.03;66.51;101024.78;5118065;27;45542;-71
2022/09/25 03:11:04;;;;;;;;;12.00;10.00;;;;;15.04;66.62;101018.41;5117718;27;45936;-69
2022/09/25 03:13:30;;;;;;;;;11.00;10.00;;;;;14.95;66.88;101012.19;5117784;27;45549;-70
2022/09/25 03:16:00;;;;;;;;;5.33;5.33;;;;;14.80;67.20;101003.97;5117337;27;45468;-71
2022/09/25 03:18:27;;;;;;;;;8.00;7.67;;;;;14.99;67.13;101034.13;5133706;27;45582;-71
2022/09/25 03:20:53;;;;;;;;;8.00;8.00;;;;;14.48;66.93;100948.56;5117079;27;46791;-71
2022/09/25 03:23:18;;;;;;;;;9.00;8.00;;;;;14.90;67.42;101018.06;5117416;27;45256;-70
2022/09/25 03:25:43;;;;;;;;;8.00;7.33;;;;;14.70;67.41;100987.25;5117435;27;45415;-70
2022/09/25 03:28:10;;;;;;;;;9.67;7.33;;;;;14.93;67.64;101032.94;5116670;27;45259;-70
2022/09/25 03:30:39;;;;;;;;;10.33;9.00;;;;;14.89;67.44;101031.59;5117642;27;45956;-70
2022/09/25 03:33:06;;;;;;;;;7.00;6.67;;;;;14.99;67.18;101037.63;5117296;27;45546;-69
2022/09/25 03:35:31;;;;;;;;;11.00;8.00;;;;;15.03;67.24;101049.72;5117133;27;45222;-71
2022/09/25 03:37:57;;;;;;;;;11.33;9.00;;;;;14.98;67.32;101035.13;5117718;27;45531;-70
2022/09/25 03:40:23;;;;;;;;;13.33;10.33;;;;;14.87;67.34;101029.09;5115907;27;48317;-71
2022/09/25 03:42:48;;;;;;;;;8.67;8.67;;;;;14.89;67.42;101035.13;5116934;27;45259;-70
2022/09/25 03:45:13;;;;;;;;;10.67;10.33;;;;;14.73;67.78;101011.00;5115804;27;49550;-69
2022/09/25 03:47:39;;;;;;;;;11.00;9.00;;;;;14.36;67.42;100951.69;5117895;27;45193;-71
2022/09/25 03:50:07;;;;;;;;;9.00;9.00;;;;;14.89;67.40;101048.50;5132795;27;48396;-71
2022/09/25 03:52:32;;;;;;;;;12.00;12.00;;;;;14.24;67.58;100946.66;5117812;27;45294;-69
2022/09/25 03:54:58;;;;;;;;;11.67;10.33;;;;;14.82;67.77;101049.34;5119273;27;45319;-69
2022/09/25 03:57:24;;;;;;;;;10.00;10.00;;;;;14.75;68.07;101051.81;5121215;27;45516;-70
2022/09/25 03:59:49;;;;;;;;;9.33;9.33;;;;;14.67;68.38;101041.09;5120596;27;45772;-71
2022/09/25 04:02:15;;;;;;;;;14.67;10.67;;;;;14.74;67.79;101054.66;5118188;27;66467;-70
2022/09/25 04:04:40;;;;;;;;;12.00;10.33;;;;;14.62;68.25;101043.44;5120862;27;45506;-71
2022/09/25 04:07:05;;;;;;;;;13.67;9.00;;;;;14.59;68.42;101025.00;5121112;27;45228;-70
2022/09/25 04:09:31;;;;;;;;;15.00;11.33;;;;;14.55;68.35;101040.56;5120619;27;45576;-70
2022/09/25 04:11:56;;;;;;;;;11.33;10.67;;;;;14.68;68.53;101058.84;5120670;27;45432;-71
2022/09/25 04:14:22;;;;;;;;;12.33;12.33;;;;;14.64;67.73;101044.09;5119681;27;45735;-71
2022/09/25 04:16:47;;;;;;;;;10.00;8.33;;;;;14.52;67.80;101024.00;5119785;27;45481;-71
2022/09/25 04:19:14;;;;;;;;;12.67;10.67;;;;;14.75;67.78;101057.16;5120544;27;46724;-71
2022/09/25 04:21:39;;;;;;;;;10.33;9.00;;;;;13.87;68.22;100930.16;5120780;27;45384;-71
2022/09/25 04:26:52;;;;;;;;;10.00;8.33;;;;;14.59;67.98;101051.75;5122702;27;45235;-70
2022/09/25 04:29:20;;;;;;;;;9.00;8.00;;;;;14.52;68.58;101056.94;5120457;27;45697;-72
2022/09/25 04:33:44;;;;;;;;;14.00;13.00;;;;;14.39;68.32;101019.06;5118685;27;45261;-71
2022/09/25 04:34:31;;;;;;;;;12.00;10.33;;;;;13.96;68.27;100956.72;5120391;27;45245;-71
2022/09/25 04:36:56;;;;;;;;;12.00;10.33;;;;;14.62;68.45;101051.47;5120242;27;45275;-71
2022/09/25 04:39:21;;;;;;;;;10.67;10.33;;;;;14.54;68.38;101032.69;5119595;27;59042;-71
2022/09/25 04:41:46;;;;;;;;;7.33;7.33;;;;;14.02;68.00;100946.41;5119364;27;63614;-69
2022/09/25 04:44:12;;;;;;;;;12.67;10.67;;;;;14.65;67.75;101048.47;5119522;27;53468;-71
2022/09/25 04:46:37;;;;;;;;;13.67;11.67;;;;;14.31;67.76;100994.97;5120559;27;45219;-70
2022/09/25 04:49:03;;;;;;;;;16.33;14.67;;;;;14.56;68.22;101070.81;5119579;27;45537;-78
2022/09/25 04:51:28;;;;;;;;;16.00;14.33;;;;;14.50;68.59;101066.13;5119568;27;45341;-70
2022/09/25 04:53:55;;;;;;;;;16.00;14.00;;;;;14.45;68.39;101071.13;5118208;27;45408;-70
2022/09/25 04:56:20;;;;;;;;;18.33;13.33;;;;;14.45;68.82;101073.81;5119859;27;45508;-69
2022/09/25 04:58:48;;;;;;;;;9.67;9.00;;;;;14.47;68.63;101061.94;5152995;27;47218;-70
2022/09/25 05:01:15;;;;;;;;;16.33;14.33;;;;;14.46;67.83;101049.56;5116002;27;45372;-70
2022/09/25 05:03:41;;;;;;;;;14.33;12.33;;;;;14.61;67.96;101080.03;5098473;27;45457;-70
2022/09/25 05:06:07;;;;;;;;;18.33;18.00;;;;;14.51;68.44;101078.50;5099499;27;45267;-70
2022/09/25 05:08:32;;;;;;;;;18.33;16.00;;;;;14.46;68.18;101075.47;5080279;27;48570;-72
2022/09/25 05:10:58;;;;;;;;;18.00;16.67;;;;;14.55;68.07;101085.19;5080629;27;46470;-70
2022/09/25 05:13:23;;;;;;;;;20.33;16.67;;;;;14.62;67.66;101086.25;5099155;27;45554;-69
2022/09/25 05:15:48;;;;;;;;;13.00;13.00;;;;;14.36;68.01;101056.84;5099682;27;45407;-70
2022/09/25 05:18:20;;;;;;;;;14.00;14.00;;;;;14.31;68.06;101067.19;5098954;27;55034;-70
2022/09/25 05:20:45;;;;;;;;;18.00;16.33;;;;;14.37;68.65;101087.09;5098591;27;45436;-70
2022/09/25 05:23:12;;;;;;;;;23.67;20.00;;;;;13.86;68.34;101003.31;5099333;27;45275;-70
2022/09/25 05:25:37;;;;;;;;;18.33;17.33;;;;;14.29;68.25;101063.84;5099304;27;45208;-70
2022/09/25 05:28:03;;;;;;;;;14.33;13.33;;;;;14.45;68.10;101106.75;5098605;27;45571;-70
2022/09/25 05:30:31;;;;;;;;;16.00;14.00;;;;;14.41;67.75;101101.81;5098886;27;45593;-70
2022/09/25 05:32:57;;;;;;;;;17.33;16.33;;;;;14.22;68.22;101084.19;5097368;27;45359;-68
2022/09/25 05:35:24;;;;;;;;;17.67;15.33;;;;;14.35;67.97;101111.34;5080385;27;45449;-70
2022/09/25 05:37:50;;;;;;;;;19.67;17.67;;;;;14.15;68.76;101094.69;5097425;27;47950;-71
2022/09/25 05:40:17;;;;;;;;;20.67;17.33;;;;;14.26;68.38;101098.94;5098627;27;45510;-68
2022/09/25 05:42:43;;;;;;;;;25.33;18.67;;;;;14.36;67.76;101099.63;5098609;27;45434;-69
2022/09/25 05:45:15;;;;;;;;;17.67;15.67;;;;;14.32;67.65;101090.25;5098977;27;45492;-70
2022/09/25 05:47:42;;;;;;;;;16.33;13.00;;;;;14.06;68.00;101071.56;5098442;27;45992;-69
2022/09/25 05:50:10;;;;;;;;;14.00;12.67;;;;;14.23;68.44;101108.13;5098157;27;45212;-70
2022/09/25 05:52:35;;;;;;;;;15.67;15.00;;;;;14.17;68.07;101086.50;5097008;27;45298;-70
2022/09/25 05:55:02;;;;;;;;;17.33;16.00;;;;;14.28;68.21;101105.78;5079930;27;45433;-71
2022/09/25 05:57:36;;;;;;;;;14.00;14.00;;;;;14.25;67.90;101094.56;5080066;27;48284;-70
2022/09/25 06:00:04;;;;;;;;;19.33;17.67;;;;;14.35;67.48;101113.16;5098218;27;45336;-71
2022/09/25 06:02:29;;;;;;;;;16.67;16.33;;;;;14.43;67.17;101119.44;5103984;27;45315;-70
2022/09/25 06:04:54;;;;;;;;;19.00;15.67;;;;;14.41;67.05;101115.19;5119148;27;45538;-71
2022/09/25 06:07:20;;;;;;;;;17.33;13.67;;;;;14.49;67.03;101118.81;5134113;27;59803;-70
2022/09/25 06:09:45;;;;;;;;;17.00;13.33;;;;;14.49;66.78;101123.31;5118837;27;45471;-70
2022/09/25 06:12:11;;;;;;;;;18.00;16.33;;;;;14.13;67.16;101063.75;5119254;27;45241;-70
2022/09/25 06:14:36;;;;;;;;;13.67;13.67;;;;;14.48;67.00;101129.66;5119312;27;45218;-69
2022/09/25 06:17:02;;;;;;;;;14.33;14.33;;;;;14.02;66.55;101040.81;5134900;27;46343;-71
2022/09/25 06:19:28;;;;;;;;;15.00;14.33;;;;;14.54;66.98;101132.53;5117338;27;45805;-71
2022/09/25 06:21:54;;;;;;;;;13.33;13.33;;;;;14.32;66.70;101106.31;5118945;27;45269;-70
2022/09/25 06:24:19;;;;;;;;;13.33;12.33;;;;;14.39;66.39;101127.91;5118694;27;45954;-71
2022/09/25 06:26:45;;;;;;;;;10.33;10.00;;;;;14.39;66.54;101138.59;5118123;27;49861;-70
2022/09/25 06:29:10;;;;;;;;;9.00;6.67;;;;;14.27;66.42;101130.84;5117197;27;45324;-71
2022/09/25 06:31:37;;;;;;;;;14.00;11.67;;;;;14.37;66.61;101143.25;5117821;27;52111;-71
2022/09/25 06:34:03;;;;;;;;;10.33;8.33;;;;;13.93;66.18;101071.16;5134746;27;45530;-70
2022/09/25 06:36:28;;;;;;;;;13.00;13.00;;;;;14.39;66.17;101133.25;5118365;27;46100;-70
2022/09/25 06:38:54;;;;;;;;;10.67;10.67;;;;;14.32;66.50;101144.59;5118243;27;45288;-71
2022/09/25 06:41:20;;;;;;;;;12.33;11.00;;;;;14.39;66.15;101141.28;5116789;27;45505;-71
2022/09/25 06:43:50;;;;;;;;;12.00;10.67;;;;;14.46;65.79;101134.34;5117668;27;45474;-71
2022/09/25 06:46:17;;;;;;;;;15.00;11.67;;;;;14.55;64.69;101141.38;5117148;27;46095;-70
2022/09/25 06:48:43;;;;;;;;;13.67;10.67;;;;;14.61;64.91;101132.72;5116894;27;45521;-71
2022/09/25 06:51:09;;;;;;;;;12.00;12.00;;;;;14.70;64.10;101149.66;5118065;27;45575;-71
2022/09/25 06:53:34;;;;;;;;;8.33;7.67;;;;;14.68;64.01;101147.16;5118246;27;45276;-70
2022/09/25 06:56:00;;;;;;;;;11.33;10.00;;;;;14.81;63.24;101133.28;5118543;27;45719;-71
2022/09/25 06:58:26;;;;;;;;;6.33;6.33;;;;;14.93;63.30;101123.13;5118875;27;45239;-71
2022/09/25 07:00:54;;;;;;;;;12.00;9.33;;;;;15.07;62.46;101133.22;5134246;27;45287;-72
2022/09/25 07:06:06;;;;;;;;;8.33;8.33;;;;;15.35;61.86;101136.44;5116779;27;45287;-70
2022/09/25 07:08:32;;;;;;;;;9.33;9.33;;;;;16.05;59.97;101139.50;5117672;27;45367;-72
2022/09/25 07:10:58;;;;;;;;;7.33;6.00;;;;;16.76;57.66;101145.88;5118133;27;45243;-70
2022/09/25 07:13:30;;;;;;;;;9.67;8.00;;;;;17.13;55.39;101113.78;5117827;27;45413;-72
2022/09/25 07:15:57;;;;;;;;;7.33;7.33;;;;;18.18;53.38;101140.81;5117460;27;45807;-77
2022/09/25 07:18:24;;;;;;;;;4.00;3.67;;;;;18.87;51.29;101143.28;5117035;27;45356;-73
2022/09/25 07:20:50;;;;;;;;;8.00;6.67;;;;;19.10;49.50;101077.41;5116253;27;45478;-71
2022/09/25 07:23:21;;;;;;;;;6.00;6.00;;;;;20.16;48.13;101121.50;5100186;27;45895;-72
2022/09/25 07:25:47;;;;;;;;;6.33;4.67;;;;;20.89;46.64;101138.97;5117667;27;46300;-73
2022/09/25 07:28:13;;;;;;;;;9.33;7.00;;;;;21.27;44.09;101129.53;5098962;27;45336;-72
2022/09/25 07:30:42;;;;;;;;;9.00;6.00;;;;;21.79;44.19;101118.75;5116974;27;45607;-72
2022/09/25 07:33:08;;;;;;;;;4.00;4.00;;;;;22.79;41.12;101149.22;5099656;27;45378;-69
2022/09/25 07:35:34;;;;;;;;;5.00;4.33;;;;;23.02;40.02;101141.44;5098377;27;45913;-76
2022/09/25 07:38:00;;;;;;;;;7.00;7.00;;;;;23.29;38.62;101147.56;5098619;27;45451;-79
2022/09/25 07:40:27;;;;;;;;;6.00;6.00;;;;;23.23;38.72;101153.88;5118080;27;45828;-72
2022/09/25 07:42:57;;;;;;;;;7.67;7.00;;;;;23.22;39.48;101152.19;5119304;27;46468;-73
2022/09/25 07:45:23;;;;;;;;;4.67;4.67;;;;;24.06;37.96;101128.44;5116653;27;45685;-73
2022/09/25 07:47:48;;;;;;;;;7.00;4.33;;;;;24.65;36.54;101144.13;5098527;27;46325;-72
2022/09/25 07:50:13;;;;;;;;;6.00;5.00;;;;;24.58;36.02;101136.03;5117036;27;45426;-74
2022/09/25 07:52:39;;;;;;;;;5.00;5.00;;;;;24.85;35.67;101160.22;5099672;27;45239;-74
2022/09/25 07:55:05;;;;;;;;;4.67;4.67;;;;;24.64;35.64;101084.56;5117390;27;47808;-74
2022/09/25 07:57:30;;;;;;;;;4.67;3.33;;;;;24.19;35.33;101073.94;5098238;27;45590;-72
2022/09/25 07:59:56;;;;;;;;;4.00;4.00;;;;;24.27;36.35;101160.63;5117252;27;45289;-71
2022/09/25 08:02:21;;;;;;;;;4.33;4.00;;;;;24.75;36.63;101162.63;5105467;27;45452;-69
2022/09/25 08:04:46;;;;;;;;;5.33;4.67;;;;;24.96;34.97;101145.84;5096512;27;46128;-71
2022/09/25 08:07:12;;;;;;;;;5.33;4.67;;;;;25.16;35.14;101159.19;5096475;27;45452;-70
2022/09/25 08:09:39;;;;;;;;;6.00;4.00;;;;;24.90;34.80;101092.34;5096461;27;45610;-71
2022/09/25 08:12:04;;;;;;;;;3.00;3.00;;;;;25.52;34.69;101141.94;5096684;27;45559;-70
2022/09/25 08:14:29;;;;;;;;;4.00;4.00;;;;;26.24;34.01;101152.72;5096370;27;45659;-70
2022/09/25 08:16:55;;;;;;;;;4.00;4.00;;;;;26.30;32.81;101149.03;5097684;27;45372;-69
2022/09/25 08:19:22;;;;;;;;;4.33;3.33;;;;;26.74;32.78;101166.66;5100593;27;45301;-70
2022/09/25 08:21:48;;;;;;;;;2.67;2.67;;;;;26.54;31.99;101145.25;5100466;27;45432;-70
2022/09/25 08:24:14;;;;;;;;;3.67;3.67;;;;;26.04;32.07;101063.16;5096043;27;45837;-69
2022/09/25 08:26:39;;;;;;;;;3.33;3.33;;;;;26.17;32.43;101138.38;5077863;27;45350;-71
2022/09/25 08:29:07;;;;;;;;;3.33;3.33;;;;;25.96;33.07;101153.41;5096538;27;45458;-72
2022/09/25 08:31:33;;;;;;;;;2.00;2.00;;;;;25.56;32.63;101126.78;5078229;27;45630;-70
2022/09/25 08:33:58;;;;;;;;;4.33;3.00;;;;;25.12;33.67;101164.28;5077585;27;46676;-73
2022/09/25 08:36:24;;;;;;;;;3.00;2.00;;;;;25.01;34.07;101146.00;5077613;27;45344;-69
2022/09/25 08:38:51;;;;;;;;;2.00;2.00;;;;;24.93;34.49;101110.09;5096948;27;45537;-70
2022/09/25 08:41:27;;;;;;;;;2.00;2.00;;;;;25.16;33.96;101160.03;5099765;27;45497;-69
2022/09/25 08:44:05;;;;;;;;;3.67;3.00;;;;;25.06;34.03;101167.09;5080765;27;45508;-70
2022/09/25 08:49:35;;;;;;;;;1.33;1.33;;;;;24.73;34.56;101132.13;5099794;27;45416;-75
2022/09/25 08:52:06;;;;;;;;;1.67;1.67;;;;;24.93;34.22;101143.56;5100107;27;45275;-72
2022/09/25 08:54:34;;;;;;;;;2.00;2.00;;;;;25.44;33.08;101162.16;5114720;27;47544;-71
2022/09/25 08:57:15;;;;;;;;;0.00;0.00;;;;;25.20;33.46;101149.50;5099666;27;45245;-70
2022/09/25 08:59:45;;;;;;;;;3.00;2.00;;;;;24.83;33.10;101103.34;5099505;27;45139;-71
2022/09/25 09:02:21;;;;;;;;;4.00;3.00;;;;;24.86;33.35;101154.56;5108899;27;45569;-70
2022/09/25 09:04:51;;;;;;;;;2.33;1.33;;;;;24.60;33.88;101159.44;5112245;27;46253;-73
2022/09/25 09:07:35;;;;;;;;;2.00;2.00;;;;;24.49;33.68;101153.72;5120031;27;45384;-75
2022/09/25 09:10:06;;;;;;;;;1.33;1.33;;;;;24.20;34.46;101159.81;5114500;27;45266;-71
2022/09/25 09:12:40;;;;;;;;;2.33;2.00;;;;;23.66;34.88;101145.88;5123973;27;45352;-70
2022/09/25 09:15:14;;;;;;;;;1.00;1.00;;;;;23.90;35.02;101160.53;5118062;27;46788;-71
2022/09/25 09:17:41;;;;;;;;;1.67;1.33;;;;;24.65;33.81;101167.78;5118016;27;45403;-71
2022/09/25 09:20:18;;;;;;;;;3.00;3.00;;;;;25.64;32.62;101150.16;5135909;27;45454;-67
2022/09/25 09:22:48;;;;;;;;;3.33;2.00;;;;;25.96;30.81;101170.56;5114074;27;45236;-68
2022/09/25 09:25:22;;;;;;;;;1.00;1.00;;;;;25.16;30.20;100936.09;5118679;27;46522;-68
2022/09/25 09:28:43;;;;;;;;;1.00;1.00;;;;;27.40;28.58;101146.13;5117070;27;45428;-69
2022/09/25 09:31:26;;;;;;;;;3.00;1.00;;;;;27.97;27.31;101154.25;5118651;27;45473;-67
2022/09/25 09:34:16;;;;;;;;;1.33;1.33;;;;;28.69;27.51;101156.13;5118348;27;45504;-70
2022/09/25 09:36:52;;;;;;;;;1.67;1.67;;;;;29.34;25.68;101153.34;5116766;27;47509;-69
2022/09/25 09:39:51;;;;;;;;;0.00;0.00;;;;;29.39;25.05;101161.59;5118261;27;45406;-69
2022/09/25 09:42:45;;;;;;;;;0.67;0.67;;;;;29.46;25.29;101160.63;5114807;27;45495;-70
2022/09/25 09:45:35;;;;;;;;;0.00;0.00;;;;;29.28;25.06;101154.38;5083163;27;45337;-71
2022/09/25 09:48:15;;;;;;;;;2.00;1.00;;;;;28.77;25.68;101152.94;5118122;27;46644;-76
2022/09/25 09:50:50;;;;;;;;;1.33;1.33;;;;;27.98;25.94;101172.28;5114836;27;45439;-71
2022/09/25 09:53:42;;;;;;;;;0.00;0.00;;;;;26.89;27.46;101157.97;5123408;27;45630;-78
2022/09/25 09:56:13;;;;;;;;;2.00;1.00;;;;;26.33;28.38;101152.09;5116051;27;45532;-81
2022/09/25 09:59:02;;;;;;;;;2.00;1.00;;;;;25.86;28.62;101158.63;5119039;27;46085;-78
2022/09/25 10:01:33;;;;;;;;;0.67;0.67;;;;;24.71;29.37;101158.72;5116159;27;45276;-77
2022/09/25 10:04:14;;;;;;;;;0.00;0.00;;;;;23.77;30.68;101149.75;5100279;27;45262;-76
2022/09/25 10:06:52;;;;;;;;;3.67;1.00;;;;;23.48;31.54;101164.78;5099874;27;45312;-78
2022/09/25 10:09:18;;;;;;;;;2.00;0.00;;;;;22.92;32.41;101165.47;5091748;27;45358;-77
2022/09/25 10:11:51;;;;;;;;;2.33;2.33;;;;;22.43;33.34;101149.78;5081511;27;45482;-75
2022/09/25 10:14:20;;;;;;;;;0.00;0.00;;;;;21.96;34.38;101157.06;5083757;27;45503;-76
2022/09/25 10:16:51;;;;;;;;;0.00;0.00;;;;;21.05;35.96;101109.91;5099130;27;45404;-77
2022/09/25 10:19:27;;;;;;;;;2.00;2.00;;;;;21.19;35.52;101146.75;5090696;27;46445;-77
2022/09/25 10:22:09;;;;;;;;;1.00;1.00;;;;;20.88;36.18;101156.22;5098848;27;45386;-81
2022/09/25 10:24:54;;;;;;;;;2.00;1.00;;;;;20.33;36.34;101084.22;5099113;27;45289;-76
2022/09/25 10:27:39;;;;;;;;;2.67;1.33;;;;;20.44;36.46;101151.22;5090947;27;45154;-76
2022/09/25 10:30:08;;;;;;;;;0.67;0.67;;;;;19.98;37.04;101123.84;5080387;27;48325;-75
2022/09/25 10:33:07;;;;;;;;;4.00;3.00;;;;;19.82;37.21;101151.13;5099311;27;45450;-76
2022/09/25 10:35:38;;;;;;;;;1.00;1.00;;;;;19.46;37.94;101152.03;5081630;27;45277;-75
2022/09/25 10:38:19;;;;;;;;;0.00;0.00;;;;;18.70;38.50;101051.06;5099224;27;45423;-74
2022/09/25 10:40:57;;;;;;;;;0.00;0.00;;;;;19.23;38.42;101141.41;5098810;27;46701;-74
2022/09/25 10:43:23;;;;;;;;;1.67;1.67;;;;;19.10;38.77;101127.78;5098360;27;45519;-75
2022/09/25 10:45:53;;;;;;;;;3.33;2.00;;;;;19.11;38.72;101135.69;5080071;27;46336;-74
2022/09/25 10:51:10;;;;;;;;;2.00;2.00;;;;;19.09;38.84;101135.03;5098072;27;45796;-75
2022/09/25 10:53:35;;;;;;;;;1.67;1.67;;;;;18.98;38.93;101131.97;5100344;27;45308;-74
2022/09/25 10:56:11;;;;;;;;;0.33;0.33;;;;;18.93;38.70;101146.03;5099258;27;45486;-76
2022/09/25 10:58:49;;;;;;;;;4.67;3.00;;;;;18.76;38.92;101145.41;5098826;27;45361;-74
2022/09/25 11:01:15;;;;;;;;;2.00;2.00;;;;;18.70;39.20;101129.16;5097755;27;46852;-75
2022/09/25 11:03:57;;;;;;;;;5.33;5.33;;;;;18.53;39.63;101105.09;5117338;27;45831;-74
2022/09/25 11:06:26;;;;;;;;;1.33;1.33;;;;;18.69;39.33;101116.72;5117199;27;45176;-75
2022/09/25 11:09:06;;;;;;;;;0.33;0.33;;;;;18.31;39.07;101079.13;5119321;27;45429;-75
2022/09/25 11:11:32;;;;;;;;;2.00;0.67;;;;;18.58;39.64;101136.00;5119035;27;46321;-76
2022/09/25 11:14:02;;;;;;;;;5.33;4.00;;;;;18.56;39.34;101114.66;5118882;27;45565;-76
2022/09/25 11:16:46;;;;;;;;;1.67;1.67;;;;;18.64;38.97;101135.31;5120024;27;45487;-76
2022/09/25 11:19:36;;;;;;;;;1.33;1.00;;;;;18.65;38.89;101145.91;5117504;27;45310;-75
2022/09/25 11:22:22;;;;;;;;;2.33;2.33;;;;;18.54;38.51;101119.41;5113627;27;48610;-75
2022/09/25 11:24:57;;;;;;;;;1.00;1.00;;;;;18.80;38.69;101151.25;5119759;27;45243;-73
2022/09/25 11:27:41;;;;;;;;;3.00;2.00;;;;;18.83;38.44;101157.13;5119247;27;45128;-75
2022/09/25 11:30:15;;;;;;;;;2.00;2.00;;;;;18.88;38.74;101151.16;5117873;27;45582;-75
2022/09/25 11:32:53;;;;;;;;;2.00;1.00;;;;;18.63;39.01;101147.13;5118240;27;45735;-75
2022/09/25 11:35:44;;;;;;;;;2.33;2.33;;;;;18.67;39.03;101161.88;5121001;27;45345;-74
2022/09/25 11:41:11;;;;;;;;;0.00;0.00;;;;;18.64;38.86;101157.69;5118065;27;45367;-75
2022/09/25 11:41:21;;;;;;;;;1.00;0.00;;;;;18.62;39.33;101153.47;5119675;27;45368;-75
2022/09/25 11:44:13;;;;;;;;;0.00;0.00;;;;;18.54;39.97;101136.38;5125727;27;48042;-76
2022/09/25 11:46:49;;;;;;;;;1.00;1.00;;;;;18.22;39.99;101072.19;5116684;27;45214;-75
2022/09/25 11:49:22;;;;;;;;;0.33;0.33;;;;;18.72;39.92;101135.19;5118322;27;45237;-79
2022/09/25 11:52:09;;;;;;;;;1.00;1.00;;;;;18.90;39.84;101149.13;5110363;27;45227;-74
2022/09/25 11:55:13;;;;;;;;;3.00;3.00;;;;;18.85;39.98;101119.22;5117250;27;46053;-75